sensor_id;sensor_type;location;lat;lon;timestamp;temperature;humidity
68480;DHT22;55469;48.934;12.050;2023-01-24T00:01:16;1.80;96.10
68480;DHT22;55469;48.934;12.050;2023-01-24T00:03:41;1.80;96.10
68480;DHT22;55469;48.934;12.050;2023-01-24T00:06:07;1.80;96.10
68480;DHT22;55469;48.934;12.050;2023-01-24T00:08:33;1.80;96.10
68480;DHT22;55469;48.934;12.050;2023-01-24T00:11:09;1.80;96.10
68480;DHT22;55469;48.934;12.050;2023-01-24T00:13:37;1.80;96.20
68480;DHT22;55469;48.934;12.050;2023-01-24T00:16:18;1.70;96.10
68480;DHT22;55469;48.934;12.050;2023-01-24T00:18:45;1.80;96.20
68480;DHT22;55469;48.934;12.050;2023-01-24T00:21:17;1.70;96.20
68480;DHT22;55469;48.934;12.050;2023-01-24T00:23:47;1.80;96.10
68480;DHT22;55469;48.934;12.050;2023-01-24T00:26:15;1.80;96.10
68480;DHT22;55469;48.934;12.050;2023-01-24T00:28:41;1.80;96.20
68480;DHT22;55469;48.934;12.050;2023-01-24T00:31:07;1.80;96.20
68480;DHT22;55469;48.934;12.050;2023-01-24T00:33:33;1.80;96.20
68480;DHT22;55469;48.934;12.050;2023-01-24T00:36:00;1.80;96.20
68480;DHT22;55469;48.934;12.050;2023-01-24T00:38:28;1.80;96.20
68480;DHT22;55469;48.934;12.050;2023-01-24T00:40:54;1.80;96.20
68480;DHT22;55469;48.934;12.050;2023-01-24T00:43:19;1.80;96.10
68480;DHT22;55469;48.934;12.050;2023-01-24T00:45:45;1.80;96.10
68480;DHT22;55469;48.934;12.050;2023-01-24T00:48:12;1.80;96.10
68480;DHT22;55469;48.934;12.050;2023-01-24T00:50:38;1.80;96.10
68480;DHT22;55469;48.934;12.050;2023-01-24T00:53:04;1.80;96.10
68480;DHT22;55469;48.934;12.050;2023-01-24T00:55:30;1.80;96.10
68480;DHT22;55469;48.934;12.050;2023-01-24T00:57:56;1.80;96.10
68480;DHT22;55469;48.934;12.050;2023-01-24T01:00:22;1.80;96.10
68480;DHT22;55469;48.934;12.050;2023-01-24T01:02:49;1.80;96.10
68480;DHT22;55469;48.934;12.050;2023-01-24T01:05:15;1.80;96.10
68480;DHT22;55469;48.934;12.050;2023-01-24T01:07:42;1.80;96.10
68480;DHT22;55469;48.934;12.050;2023-01-24T01:10:08;1.80;96.10
68480;DHT22;55469;48.934;12.050;2023-01-24T01:12:35;1.80;96.10
68480;DHT22;55469;48.934;12.050;2023-01-24T01:15:01;1.80;96.00
68480;DHT22;55469;48.934;12.050;2023-01-24T01:17:27;1.80;96.10
68480;DHT22;55469;48.934;12.050;2023-01-24T01:19:53;1.80;96.10
68480;DHT22;55469;48.934;12.050;2023-01-24T01:22:20;1.80;96.10
68480;DHT22;55469;48.934;12.050;2023-01-24T01:24:46;1.80;96.10
68480;DHT22;55469;48.934;12.050;2023-01-24T01:27:12;1.80;96.10
68480;DHT22;55469;48.934;12.050;2023-01-24T01:29:38;1.80;96.00
68480;DHT22;55469;48.934;12.050;2023-01-24T01:32:04;1.80;96.10
68480;DHT22;55469;48.934;12.050;2023-01-24T01:34:30;1.80;96.10
68480;DHT22;55469;48.934;12.050;2023-01-24T01:36:56;1.80;96.00
68480;DHT22;55469;48.934;12.050;2023-01-24T01:39:21;1.80;96.00
68480;DHT22;55469;48.934;12.050;2023-01-24T01:41:47;1.80;96.10
68480;DHT22;55469;48.934;12.050;2023-01-24T01:44:28;1.80;96.10
68480;DHT22;55469;48.934;12.050;2023-01-24T01:50:05;1.80;96.10
68480;DHT22;55469;48.934;12.050;2023-01-24T01:53:01;1.80;96.10
68480;DHT22;55469;48.934;12.050;2023-01-24T01:55:28;1.80;96.10
68480;DHT22;55469;48.934;12.050;2023-01-24T01:57:56;1.80;96.10
68480;DHT22;55469;48.934;12.050;2023-01-24T02:00:24;1.80;96.20
68480;DHT22;55469;48.934;12.050;2023-01-24T02:03:05;1.80;96.10
68480;DHT22;55469;48.934;12.050;2023-01-24T02:05:54;1.80;96.10
68480;DHT22;55469;48.934;12.050;2023-01-24T02:08:22;1.80;96.10
68480;DHT22;55469;48.934;12.050;2023-01-24T02:10:50;1.80;96.20
68480;DHT22;55469;48.934;12.050;2023-01-24T02:13:36;1.80;96.10
68480;DHT22;55469;48.934;12.050;2023-01-24T02:16:05;1.80;96.10
68480;DHT22;55469;48.934;12.050;2023-01-24T02:18:40;1.80;96.10
68480;DHT22;55469;48.934;12.050;2023-01-24T02:21:12;1.80;96.20
68480;DHT22;55469;48.934;12.050;2023-01-24T02:26:31;1.80;96.10
68480;DHT22;55469;48.934;12.050;2023-01-24T02:29:09;1.80;96.20
68480;DHT22;55469;48.934;12.050;2023-01-24T02:31:53;1.90;96.20
68480;DHT22;55469;48.934;12.050;2023-01-24T02:34:23;1.80;96.20
68480;DHT22;55469;48.934;12.050;2023-01-24T02:36:53;1.80;96.20
68480;DHT22;55469;48.934;12.050;2023-01-24T02:39:37;1.80;96.20
68480;DHT22;55469;48.934;12.050;2023-01-24T02:42:36;1.80;96.30
68480;DHT22;55469;48.934;12.050;2023-01-24T02:45:09;1.80;96.30
68480;DHT22;55469;48.934;12.050;2023-01-24T02:47:40;1.80;96.30
68480;DHT22;55469;48.934;12.050;2023-01-24T02:50:09;1.80;96.20
68480;DHT22;55469;48.934;12.050;2023-01-24T02:52:35;1.80;96.20
68480;DHT22;55469;48.934;12.050;2023-01-24T02:55:19;1.80;96.20
68480;DHT22;55469;48.934;12.050;2023-01-24T02:57:45;1.90;96.20
68480;DHT22;55469;48.934;12.050;2023-01-24T03:00:29;1.80;96.10
68480;DHT22;55469;48.934;12.050;2023-01-24T03:02:55;1.90;96.10
68480;DHT22;55469;48.934;12.050;2023-01-24T03:05:21;1.90;96.10
68480;DHT22;55469;48.934;12.050;2023-01-24T03:07:47;1.90;96.10
68480;DHT22;55469;48.934;12.050;2023-01-24T03:10:15;1.90;96.10
68480;DHT22;55469;48.934;12.050;2023-01-24T03:12:42;1.80;96.00
68480;DHT22;55469;48.934;12.050;2023-01-24T03:15:27;1.80;96.10
68480;DHT22;55469;48.934;12.050;2023-01-24T03:18:11;1.80;96.10
68480;DHT22;55469;48.934;12.050;2023-01-24T03:20:55;1.80;96.10
68480;DHT22;55469;48.934;12.050;2023-01-24T03:23:39;1.80;96.00
68480;DHT22;55469;48.934;12.050;2023-01-24T03:26:24;1.80;96.10
68480;DHT22;55469;48.934;12.050;2023-01-24T03:29:09;1.80;96.10
68480;DHT22;55469;48.934;12.050;2023-01-24T03:31:53;1.80;96.10
68480;DHT22;55469;48.934;12.050;2023-01-24T03:34:38;1.80;95.70
68480;DHT22;55469;48.934;12.050;2023-01-24T03:37:18;1.80;96.50
68480;DHT22;55469;48.934;12.050;2023-01-24T03:40:06;1.80;96.10
68480;DHT22;55469;48.934;12.050;2023-01-24T03:42:34;1.80;96.10
68480;DHT22;55469;48.934;12.050;2023-01-24T03:45:02;1.80;96.10
68480;DHT22;55469;48.934;12.050;2023-01-24T03:47:28;1.80;96.10
68480;DHT22;55469;48.934;12.050;2023-01-24T03:49:54;1.80;96.20
68480;DHT22;55469;48.934;12.050;2023-01-24T03:52:38;1.80;96.10
68480;DHT22;55469;48.934;12.050;2023-01-24T03:55:04;1.70;96.10
68480;DHT22;55469;48.934;12.050;2023-01-24T03:57:32;1.80;96.60
68480;DHT22;55469;48.934;12.050;2023-01-24T03:59:58;1.70;96.10
68480;DHT22;55469;48.934;12.050;2023-01-24T04:02:23;1.70;96.10
68480;DHT22;55469;48.934;12.050;2023-01-24T04:04:49;1.80;96.10
68480;DHT22;55469;48.934;12.050;2023-01-24T04:07:33;1.70;96.10
68480;DHT22;55469;48.934;12.050;2023-01-24T04:09:59;1.70;96.10
68480;DHT22;55469;48.934;12.050;2023-01-24T04:12:25;1.70;96.20
68480;DHT22;55469;48.934;12.050;2023-01-24T04:14:51;1.70;96.20
68480;DHT22;55469;48.934;12.050;2023-01-24T04:17:17;1.70;96.20
68480;DHT22;55469;48.934;12.050;2023-01-24T04:19:43;1.70;96.20
68480;DHT22;55469;48.934;12.050;2023-01-24T04:22:08;1.70;96.20
68480;DHT22;55469;48.934;12.050;2023-01-24T04:24:34;1.70;96.20
68480;DHT22;55469;48.934;12.050;2023-01-24T04:27:00;1.70;96.20
68480;DHT22;55469;48.934;12.050;2023-01-24T04:29:26;1.70;96.20
68480;DHT22;55469;48.934;12.050;2023-01-24T04:31:51;1.70;96.20
68480;DHT22;55469;48.934;12.050;2023-01-24T04:34:17;1.70;96.20
68480;DHT22;55469;48.934;12.050;2023-01-24T04:36:43;1.70;96.20
68480;DHT22;55469;48.934;12.050;2023-01-24T04:39:08;1.70;96.30
68480;DHT22;55469;48.934;12.050;2023-01-24T04:41:34;1.60;96.20
68480;DHT22;55469;48.934;12.050;2023-01-24T04:44:00;1.60;96.20
68480;DHT22;55469;48.934;12.050;2023-01-24T04:46:27;1.60;96.30
68480;DHT22;55469;48.934;12.050;2023-01-24T04:48:53;1.70;96.30
68480;DHT22;55469;48.934;12.050;2023-01-24T04:51:19;1.60;96.30
68480;DHT22;55469;48.934;12.050;2023-01-24T04:53:45;1.60;96.30
68480;DHT22;55469;48.934;12.050;2023-01-24T04:56:11;1.60;96.30
68480;DHT22;55469;48.934;12.050;2023-01-24T04:58:36;1.60;96.30
68480;DHT22;55469;48.934;12.050;2023-01-24T05:01:02;1.60;96.30
68480;DHT22;55469;48.934;12.050;2023-01-24T05:03:28;1.60;96.30
68480;DHT22;55469;48.934;12.050;2023-01-24T05:05:54;1.60;96.30
68480;DHT22;55469;48.934;12.050;2023-01-24T05:08:21;1.60;96.30
68480;DHT22;55469;48.934;12.050;2023-01-24T05:10:47;1.60;96.80
68480;DHT22;55469;48.934;12.050;2023-01-24T05:13:13;1.60;96.30
68480;DHT22;55469;48.934;12.050;2023-01-24T05:15:47;1.60;96.30
68480;DHT22;55469;48.934;12.050;2023-01-24T05:18:14;1.60;96.30
68480;DHT22;55469;48.934;12.050;2023-01-24T05:20:40;1.60;96.30
68480;DHT22;55469;48.934;12.050;2023-01-24T05:23:05;1.60;96.30
68480;DHT22;55469;48.934;12.050;2023-01-24T05:25:31;1.60;96.30
68480;DHT22;55469;48.934;12.050;2023-01-24T05:27:57;1.60;96.30
68480;DHT22;55469;48.934;12.050;2023-01-24T05:30:22;1.60;96.30
68480;DHT22;55469;48.934;12.050;2023-01-24T05:32:48;1.60;96.30
68480;DHT22;55469;48.934;12.050;2023-01-24T05:35:14;1.60;96.20
68480;DHT22;55469;48.934;12.050;2023-01-24T05:37:40;1.60;96.20
68480;DHT22;55469;48.934;12.050;2023-01-24T05:40:07;1.60;96.20
68480;DHT22;55469;48.934;12.050;2023-01-24T05:42:33;1.60;96.20
68480;DHT22;55469;48.934;12.050;2023-01-24T05:44:59;1.60;96.20
68480;DHT22;55469;48.934;12.050;2023-01-24T05:47:26;1.60;96.20
68480;DHT22;55469;48.934;12.050;2023-01-24T05:49:51;1.60;96.20
68480;DHT22;55469;48.934;12.050;2023-01-24T05:52:17;1.60;96.20
68480;DHT22;55469;48.934;12.050;2023-01-24T05:54:49;1.60;96.20
68480;DHT22;55469;48.934;12.050;2023-01-24T05:57:16;1.60;96.20
68480;DHT22;55469;48.934;12.050;2023-01-24T05:59:42;1.60;96.20
68480;DHT22;55469;48.934;12.050;2023-01-24T06:02:08;1.60;96.20
68480;DHT22;55469;48.934;12.050;2023-01-24T06:04:34;1.60;96.10
68480;DHT22;55469;48.934;12.050;2023-01-24T06:06:59;1.60;96.10
68480;DHT22;55469;48.934;12.050;2023-01-24T06:09:25;1.60;96.20
68480;DHT22;55469;48.934;12.050;2023-01-24T06:11:51;1.60;96.10
68480;DHT22;55469;48.934;12.050;2023-01-24T06:14:17;1.60;96.10
68480;DHT22;55469;48.934;12.050;2023-01-24T06:16:44;1.60;96.10
68480;DHT22;55469;48.934;12.050;2023-01-24T06:19:11;1.70;96.10
68480;DHT22;55469;48.934;12.050;2023-01-24T06:21:42;1.60;96.10
68480;DHT22;55469;48.934;12.050;2023-01-24T06:24:23;1.60;96.10
68480;DHT22;55469;48.934;12.050;2023-01-24T06:26:51;1.70;96.10
68480;DHT22;55469;48.934;12.050;2023-01-24T06:29:19;1.60;96.00
68480;DHT22;55469;48.934;12.050;2023-01-24T06:40:14;1.60;96.10
68480;DHT22;55469;48.934;12.050;2023-01-24T06:42:41;1.60;96.00
68480;DHT22;55469;48.934;12.050;2023-01-24T06:45:08;1.60;96.00
68480;DHT22;55469;48.934;12.050;2023-01-24T06:47:34;1.60;96.00
68480;DHT22;55469;48.934;12.050;2023-01-24T06:50:00;1.60;96.00
68480;DHT22;55469;48.934;12.050;2023-01-24T06:52:26;1.60;96.00
68480;DHT22;55469;48.934;12.050;2023-01-24T06:54:52;1.60;96.00
68480;DHT22;55469;48.934;12.050;2023-01-24T06:57:17;1.60;96.00
68480;DHT22;55469;48.934;12.050;2023-01-24T06:59:43;1.60;96.00
68480;DHT22;55469;48.934;12.050;2023-01-24T07:02:10;1.60;96.00
68480;DHT22;55469;48.934;12.050;2023-01-24T07:04:35;1.70;96.00
68480;DHT22;55469;48.934;12.050;2023-01-24T07:07:02;1.70;96.00
68480;DHT22;55469;48.934;12.050;2023-01-24T07:09:28;1.70;96.00
68480;DHT22;55469;48.934;12.050;2023-01-24T07:11:54;1.70;96.00
68480;DHT22;55469;48.934;12.050;2023-01-24T07:14:23;1.70;96.00
68480;DHT22;55469;48.934;12.050;2023-01-24T07:16:49;1.70;96.00
68480;DHT22;55469;48.934;12.050;2023-01-24T07:19:19;1.70;96.00
68480;DHT22;55469;48.934;12.050;2023-01-24T07:21:47;1.70;96.00
68480;DHT22;55469;48.934;12.050;2023-01-24T07:24:19;1.70;96.00
68480;DHT22;55469;48.934;12.050;2023-01-24T07:26:46;1.70;96.00
68480;DHT22;55469;48.934;12.050;2023-01-24T07:29:17;1.70;96.00
68480;DHT22;55469;48.934;12.050;2023-01-24T07:31:43;1.60;96.00
68480;DHT22;55469;48.934;12.050;2023-01-24T07:34:09;1.70;96.00
68480;DHT22;55469;48.934;12.050;2023-01-24T07:36:35;1.70;96.00
68480;DHT22;55469;48.934;12.050;2023-01-24T07:39:01;1.70;96.40
68480;DHT22;55469;48.934;12.050;2023-01-24T07:41:26;1.70;95.90
68480;DHT22;55469;48.934;12.050;2023-01-24T07:43:53;1.70;95.90
68480;DHT22;55469;48.934;12.050;2023-01-24T07:46:20;1.70;95.90
68480;DHT22;55469;48.934;12.050;2023-01-24T07:48:46;1.70;95.90
68480;DHT22;55469;48.934;12.050;2023-01-24T07:51:11;1.70;95.90
68480;DHT22;55469;48.934;12.050;2023-01-24T07:53:40;1.70;96.40
68480;DHT22;55469;48.934;12.050;2023-01-24T07:56:06;1.70;95.90
68480;DHT22;55469;48.934;12.050;2023-01-24T07:58:32;1.70;95.90
68480;DHT22;55469;48.934;12.050;2023-01-24T08:00:57;1.70;95.90
68480;DHT22;55469;48.934;12.050;2023-01-24T08:03:23;1.70;95.90
68480;DHT22;55469;48.934;12.050;2023-01-24T08:05:49;1.70;95.90
68480;DHT22;55469;48.934;12.050;2023-01-24T08:08:15;1.70;95.90
68480;DHT22;55469;48.934;12.050;2023-01-24T08:10:41;1.70;95.90
68480;DHT22;55469;48.934;12.050;2023-01-24T08:13:06;1.70;95.90
68480;DHT22;55469;48.934;12.050;2023-01-24T08:15:32;1.70;95.90
68480;DHT22;55469;48.934;12.050;2023-01-24T08:17:59;1.70;95.90
68480;DHT22;55469;48.934;12.050;2023-01-24T08:20:26;1.70;95.90
68480;DHT22;55469;48.934;12.050;2023-01-24T08:22:55;1.70;95.90
68480;DHT22;55469;48.934;12.050;2023-01-24T08:25:21;1.70;95.80
68480;DHT22;55469;48.934;12.050;2023-01-24T08:27:47;1.70;95.80
68480;DHT22;55469;48.934;12.050;2023-01-24T08:30:13;1.80;95.90
68480;DHT22;55469;48.934;12.050;2023-01-24T08:32:39;1.80;95.80
68480;DHT22;55469;48.934;12.050;2023-01-24T08:35:05;1.80;95.90
68480;DHT22;55469;48.934;12.050;2023-01-24T08:37:31;1.70;95.80
68480;DHT22;55469;48.934;12.050;2023-01-24T08:39:56;1.70;95.80
68480;DHT22;55469;48.934;12.050;2023-01-24T08:42:22;1.80;95.90
68480;DHT22;55469;48.934;12.050;2023-01-24T08:44:49;1.80;95.90
68480;DHT22;55469;48.934;12.050;2023-01-24T08:47:15;1.70;95.90
68480;DHT22;55469;48.934;12.050;2023-01-24T08:49:41;1.80;95.80
68480;DHT22;55469;48.934;12.050;2023-01-24T08:52:07;1.80;95.80
68480;DHT22;55469;48.934;12.050;2023-01-24T08:54:33;1.80;95.90
68480;DHT22;55469;48.934;12.050;2023-01-24T08:57:00;1.80;95.80
68480;DHT22;55469;48.934;12.050;2023-01-24T08:59:26;1.80;95.90
68480;DHT22;55469;48.934;12.050;2023-01-24T09:01:52;1.80;95.90
68480;DHT22;55469;48.934;12.050;2023-01-24T09:04:17;1.80;95.80
68480;DHT22;55469;48.934;12.050;2023-01-24T09:06:43;1.80;95.80
68480;DHT22;55469;48.934;12.050;2023-01-24T09:09:09;1.80;95.80
68480;DHT22;55469;48.934;12.050;2023-01-24T09:11:35;1.80;95.80
68480;DHT22;55469;48.934;12.050;2023-01-24T09:14:00;1.80;95.80
68480;DHT22;55469;48.934;12.050;2023-01-24T09:16:26;1.90;95.80
68480;DHT22;55469;48.934;12.050;2023-01-24T09:18:53;1.90;95.80
68480;DHT22;55469;48.934;12.050;2023-01-24T09:21:20;1.90;95.80
68480;DHT22;55469;48.934;12.050;2023-01-24T09:23:46;1.90;95.80
68480;DHT22;55469;48.934;12.050;2023-01-24T09:26:12;1.90;95.80
68480;DHT22;55469;48.934;12.050;2023-01-24T09:28:39;1.90;95.80
68480;DHT22;55469;48.934;12.050;2023-01-24T09:31:07;1.90;95.70
68480;DHT22;55469;48.934;12.050;2023-01-24T09:33:33;1.90;95.70
68480;DHT22;55469;48.934;12.050;2023-01-24T09:36:01;2.00;95.70
68480;DHT22;55469;48.934;12.050;2023-01-24T09:38:30;2.00;95.70
68480;DHT22;55469;48.934;12.050;2023-01-24T09:41:06;2.00;95.80
68480;DHT22;55469;48.934;12.050;2023-01-24T09:43:53;2.00;95.70
68480;DHT22;55469;48.934;12.050;2023-01-24T09:49:33;2.00;95.70
68480;DHT22;55469;48.934;12.050;2023-01-24T09:52:06;2.10;95.60
68480;DHT22;55469;48.934;12.050;2023-01-24T09:54:47;2.00;95.60
68480;DHT22;55469;48.934;12.050;2023-01-24T09:57:28;2.10;95.60
68480;DHT22;55469;48.934;12.050;2023-01-24T10:00:00;2.10;95.60
68480;DHT22;55469;48.934;12.050;2023-01-24T10:02:29;2.10;95.60
68480;DHT22;55469;48.934;12.050;2023-01-24T10:04:55;2.10;95.50
68480;DHT22;55469;48.934;12.050;2023-01-24T10:25:49;2.10;95.60
68480;DHT22;55469;48.934;12.050;2023-01-24T10:28:47;2.10;95.60
68480;DHT22;55469;48.934;12.050;2023-01-24T10:31:25;2.20;95.60
68480;DHT22;55469;48.934;12.050;2023-01-24T10:34:10;2.20;95.50
68480;DHT22;55469;48.934;12.050;2023-01-24T10:39:36;2.20;95.50
68480;DHT22;55469;48.934;12.050;2023-01-24T10:42:15;2.20;95.50
68480;DHT22;55469;48.934;12.050;2023-01-24T10:44:45;2.20;95.50
68480;DHT22;55469;48.934;12.050;2023-01-24T10:47:38;2.20;95.60
68480;DHT22;55469;48.934;12.050;2023-01-24T10:50:10;2.20;95.60
68480;DHT22;55469;48.934;12.050;2023-01-24T10:52:40;2.20;95.50
68480;DHT22;55469;48.934;12.050;2023-01-24T10:55:30;2.30;95.50
68480;DHT22;55469;48.934;12.050;2023-01-24T10:58:03;2.30;95.50
68480;DHT22;55469;48.934;12.050;2023-01-24T11:00:44;2.30;95.50
68480;DHT22;55469;48.934;12.050;2023-01-24T11:03:19;2.30;95.50
68480;DHT22;55469;48.934;12.050;2023-01-24T11:05:52;2.30;95.50
68480;DHT22;55469;48.934;12.050;2023-01-24T11:08:22;2.30;95.50
68480;DHT22;55469;48.934;12.050;2023-01-24T11:10:56;2.30;95.50
68480;DHT22;55469;48.934;12.050;2023-01-24T11:16:20;2.30;95.40
68480;DHT22;55469;48.934;12.050;2023-01-24T11:21:18;2.40;95.50
68480;DHT22;55469;48.934;12.050;2023-01-24T11:23:45;2.30;95.50
68480;DHT22;55469;48.934;12.050;2023-01-24T11:26:26;2.40;95.50
68480;DHT22;55469;48.934;12.050;2023-01-24T11:29:02;2.40;95.40
68480;DHT22;55469;48.934;12.050;2023-01-24T11:31:39;2.40;95.40
68480;DHT22;55469;48.934;12.050;2023-01-24T11:37:20;2.40;95.30
68480;DHT22;55469;48.934;12.050;2023-01-24T11:40:18;2.40;95.40
68480;DHT22;55469;48.934;12.050;2023-01-24T11:46:05;2.50;95.40
68480;DHT22;55469;48.934;12.050;2023-01-24T12:00:24;2.50;95.30
68480;DHT22;55469;48.934;12.050;2023-01-24T12:11:39;2.60;95.40
68480;DHT22;55469;48.934;12.050;2023-01-24T12:22:39;2.60;95.40
68480;DHT22;55469;48.934;12.050;2023-01-24T12:25:27;2.60;95.40
68480;DHT22;55469;48.934;12.050;2023-01-24T12:28:03;2.60;95.40
68480;DHT22;55469;48.934;12.050;2023-01-24T12:30:47;2.60;95.40
68480;DHT22;55469;48.934;12.050;2023-01-24T12:33:33;2.70;95.40
68480;DHT22;55469;48.934;12.050;2023-01-24T12:36:12;2.70;95.40
68480;DHT22;55469;48.934;12.050;2023-01-24T12:38:51;2.70;95.40
68480;DHT22;55469;48.934;12.050;2023-01-24T12:41:33;2.70;95.30
68480;DHT22;55469;48.934;12.050;2023-01-24T12:47:02;2.70;95.50
68480;DHT22;55469;48.934;12.050;2023-01-24T12:49:58;2.80;95.50
68480;DHT22;55469;48.934;12.050;2023-01-24T12:55:22;2.70;95.60
68480;DHT22;55469;48.934;12.050;2023-01-24T12:58:04;2.80;95.40
68480;DHT22;55469;48.934;12.050;2023-01-24T13:00:57;2.70;95.50
68480;DHT22;55469;48.934;12.050;2023-01-24T13:04:11;2.80;95.50
68480;DHT22;55469;48.934;12.050;2023-01-24T13:06:55;2.80;95.50
68480;DHT22;55469;48.934;12.050;2023-01-24T13:12:18;2.80;95.50
68480;DHT22;55469;48.934;12.050;2023-01-24T13:14:56;2.80;95.50
68480;DHT22;55469;48.934;12.050;2023-01-24T13:17:47;2.80;95.50
68480;DHT22;55469;48.934;12.050;2023-01-24T13:20:42;2.80;95.40
68480;DHT22;55469;48.934;12.050;2023-01-24T13:23:35;2.80;95.40
68480;DHT22;55469;48.934;12.050;2023-01-24T13:29:19;2.80;96.00
68480;DHT22;55469;48.934;12.050;2023-01-24T13:32:11;2.80;95.50
68480;DHT22;55469;48.934;12.050;2023-01-24T13:37:33;2.80;95.50
68480;DHT22;55469;48.934;12.050;2023-01-24T13:42:38;2.80;95.50
68480;DHT22;55469;48.934;12.050;2023-01-24T13:47:50;2.80;95.40
68480;DHT22;55469;48.934;12.050;2023-01-24T13:50:18;2.80;95.50
68480;DHT22;55469;48.934;12.050;2023-01-24T13:52:56;2.80;95.50
68480;DHT22;55469;48.934;12.050;2023-01-24T14:00:31;2.80;95.60
68480;DHT22;55469;48.934;12.050;2023-01-24T14:03:35;2.80;95.70
68480;DHT22;55469;48.934;12.050;2023-01-24T14:22:02;2.80;95.60
68480;DHT22;55469;48.934;12.050;2023-01-24T14:24:35;2.80;95.60
68480;DHT22;55469;48.934;12.050;2023-01-24T14:27:27;2.80;95.70
68480;DHT22;55469;48.934;12.050;2023-01-24T14:30:03;2.80;95.70
68480;DHT22;55469;48.934;12.050;2023-01-24T14:37:42;2.80;95.70
68480;DHT22;55469;48.934;12.050;2023-01-24T14:40:23;2.80;95.70
68480;DHT22;55469;48.934;12.050;2023-01-24T14:43:01;2.80;95.60
68480;DHT22;55469;48.934;12.050;2023-01-24T14:45:29;2.80;95.70
68480;DHT22;55469;48.934;12.050;2023-01-24T14:47:57;2.80;95.70
68480;DHT22;55469;48.934;12.050;2023-01-24T14:50:27;2.80;95.70
68480;DHT22;55469;48.934;12.050;2023-01-24T14:52:59;2.80;95.70
68480;DHT22;55469;48.934;12.050;2023-01-24T14:57:51;2.80;95.70
68480;DHT22;55469;48.934;12.050;2023-01-24T15:00:19;2.80;95.70
68480;DHT22;55469;48.934;12.050;2023-01-24T15:03:00;2.90;95.70
68480;DHT22;55469;48.934;12.050;2023-01-24T15:05:33;2.80;95.70
68480;DHT22;55469;48.934;12.050;2023-01-24T15:08:05;2.80;95.70
68480;DHT22;55469;48.934;12.050;2023-01-24T15:10:37;2.80;95.70
68480;DHT22;55469;48.934;12.050;2023-01-24T15:13:17;2.80;95.70
68480;DHT22;55469;48.934;12.050;2023-01-24T15:16:04;2.80;96.20
68480;DHT22;55469;48.934;12.050;2023-01-24T15:18:38;2.80;95.80
68480;DHT22;55469;48.934;12.050;2023-01-24T15:23:56;2.80;96.20
68480;DHT22;55469;48.934;12.050;2023-01-24T15:28:56;2.80;95.80
68480;DHT22;55469;48.934;12.050;2023-01-24T15:31:28;2.80;95.80
68480;DHT22;55469;48.934;12.050;2023-01-24T15:33:59;2.80;95.70
68480;DHT22;55469;48.934;12.050;2023-01-24T15:36:33;2.90;95.80
68480;DHT22;55469;48.934;12.050;2023-01-24T15:39:00;2.90;95.70
68480;DHT22;55469;48.934;12.050;2023-01-24T15:41:28;2.90;95.70
68480;DHT22;55469;48.934;12.050;2023-01-24T15:44:15;2.80;95.80
68480;DHT22;55469;48.934;12.050;2023-01-24T15:46:53;2.80;95.80
68480;DHT22;55469;48.934;12.050;2023-01-24T15:49:40;2.90;95.80
68480;DHT22;55469;48.934;12.050;2023-01-24T15:52:21;2.80;95.80
68480;DHT22;55469;48.934;12.050;2023-01-24T15:54:54;2.90;95.80
68480;DHT22;55469;48.934;12.050;2023-01-24T16:00:03;2.80;95.80
68480;DHT22;55469;48.934;12.050;2023-01-24T16:02:47;2.80;95.80
68480;DHT22;55469;48.934;12.050;2023-01-24T16:05:14;2.90;95.90
68480;DHT22;55469;48.934;12.050;2023-01-24T16:07:41;2.80;95.90
68480;DHT22;55469;48.934;12.050;2023-01-24T16:10:16;2.80;95.90
68480;DHT22;55469;48.934;12.050;2023-01-24T16:12:43;2.80;96.00
68480;DHT22;55469;48.934;12.050;2023-01-24T16:15:15;2.80;95.90
68480;DHT22;55469;48.934;12.050;2023-01-24T16:17:42;2.80;95.90
68480;DHT22;55469;48.934;12.050;2023-01-24T16:20:22;2.90;96.00
68480;DHT22;55469;48.934;12.050;2023-01-24T16:22:49;2.80;96.00
68480;DHT22;55469;48.934;12.050;2023-01-24T16:25:16;2.80;96.00
68480;DHT22;55469;48.934;12.050;2023-01-24T16:27:44;2.80;95.90
68480;DHT22;55469;48.934;12.050;2023-01-24T16:30:15;2.80;96.00
68480;DHT22;55469;48.934;12.050;2023-01-24T16:32:43;2.90;96.00
68480;DHT22;55469;48.934;12.050;2023-01-24T16:35:09;2.80;95.90
68480;DHT22;55469;48.934;12.050;2023-01-24T16:37:34;2.80;96.00
68480;DHT22;55469;48.934;12.050;2023-01-24T16:40:00;2.80;96.00
68480;DHT22;55469;48.934;12.050;2023-01-24T16:42:26;2.90;96.00
68480;DHT22;55469;48.934;12.050;2023-01-24T16:44:56;2.80;96.00
68480;DHT22;55469;48.934;12.050;2023-01-24T16:47:24;2.80;96.00
68480;DHT22;55469;48.934;12.050;2023-01-24T16:49:55;2.80;96.00
68480;DHT22;55469;48.934;12.050;2023-01-24T16:52:23;2.80;96.10
68480;DHT22;55469;48.934;12.050;2023-01-24T16:54:51;2.80;96.00
68480;DHT22;55469;48.934;12.050;2023-01-24T16:57:17;2.80;96.10
68480;DHT22;55469;48.934;12.050;2023-01-24T16:59:44;2.80;96.10
68480;DHT22;55469;48.934;12.050;2023-01-24T17:02:11;2.80;96.10
68480;DHT22;55469;48.934;12.050;2023-01-24T17:04:37;2.80;96.10
68480;DHT22;55469;48.934;12.050;2023-01-24T17:07:03;2.80;96.10
68480;DHT22;55469;48.934;12.050;2023-01-24T17:09:30;2.90;96.10
68480;DHT22;55469;48.934;12.050;2023-01-24T17:11:56;2.80;96.10
68480;DHT22;55469;48.934;12.050;2023-01-24T17:14:22;2.90;96.10
68480;DHT22;55469;48.934;12.050;2023-01-24T17:16:49;2.80;96.10
68480;DHT22;55469;48.934;12.050;2023-01-24T17:19:18;2.80;96.60
68480;DHT22;55469;48.934;12.050;2023-01-24T17:21:43;2.80;96.10
68480;DHT22;55469;48.934;12.050;2023-01-24T17:24:09;2.80;96.10
68480;DHT22;55469;48.934;12.050;2023-01-24T17:26:35;2.90;96.10
68480;DHT22;55469;48.934;12.050;2023-01-24T17:29:02;2.80;96.10
68480;DHT22;55469;48.934;12.050;2023-01-24T17:31:28;2.80;96.10
68480;DHT22;55469;48.934;12.050;2023-01-24T17:33:54;2.80;96.10
68480;DHT22;55469;48.934;12.050;2023-01-24T17:36:20;2.80;96.00
68480;DHT22;55469;48.934;12.050;2023-01-24T17:38:46;2.80;96.00
68480;DHT22;55469;48.934;12.050;2023-01-24T17:41:17;2.80;96.00
68480;DHT22;55469;48.934;12.050;2023-01-24T17:43:44;2.80;96.10
68480;DHT22;55469;48.934;12.050;2023-01-24T17:46:10;2.90;96.10
68480;DHT22;55469;48.934;12.050;2023-01-24T17:48:36;2.80;96.10
68480;DHT22;55469;48.934;12.050;2023-01-24T17:51:10;2.90;96.10
68480;DHT22;55469;48.934;12.050;2023-01-24T17:53:41;2.80;96.10
68480;DHT22;55469;48.934;12.050;2023-01-24T17:56:09;2.80;96.00
68480;DHT22;55469;48.934;12.050;2023-01-24T17:58:36;2.90;96.10
68480;DHT22;55469;48.934;12.050;2023-01-24T18:01:03;2.90;96.10
68480;DHT22;55469;48.934;12.050;2023-01-24T18:03:29;2.80;96.10
68480;DHT22;55469;48.934;12.050;2023-01-24T18:05:54;2.80;96.00
68480;DHT22;55469;48.934;12.050;2023-01-24T18:08:21;2.90;96.10